Moby Baby — ICEM — position and weather

sailwx.info

Track history (hours):
 
Tides and Currents Weather Stations Pressure Air Temp Water Temp Dewpoint Dewpoint Depression Visibility Wind Speed Wind Dir Waves Ship Positions

Moby Baby

Last reported at 2015-Apr-18 19:14 UTC. Time now 2015-Apr-19 09:24 UTC.
Position N 42°50' E 010°22'.

Length 99 m; draft 4.5 m.

Type: Ship. MMSI: 247049900.

Date/timePositionNaut miles runAvg speedWind from/ knotsBaromVisibWave heightAir tempDewpointWater temp
2015-Apr-18 19:14N 42°50' E 010°22'3 1.8
2015-Apr-18 17:29N 42°53' E 010°25'2 1.0
2015-Apr-18 15:31N 42°54' E 010°27'1 0.3
2015-Apr-18 12:33N 42°54' E 010°26'2 0.1
2015-Apr-17 19:05N 42°52' E 010°24'7 1.9
2015-Apr-17 15:12N 42°55' E 010°33'12 0.9
2015-Apr-17 01:29N 42°49' E 010°19'0 0.0
2015-Apr-17 00:04N 42°49' E 010°19'0 0.0
2015-Apr-16 23:33N 42°49' E 010°19'0 0.0
2015-Apr-16 22:31N 42°49' E 010°19'0 0.0
2015-Apr-16 21:33N 42°49' E 010°19'0 0.0
2015-Apr-16 20:30N 42°49' E 010°19'0 0.0
2015-Apr-16 19:31N 42°49' E 010°19'2 0.7
2015-Apr-16 17:14N 42°50' E 010°21'5 2.8
2015-Apr-16 15:31N 42°53' E 010°26'6 5.9
2015-Apr-16 14:29N 42°56' E 010°33'1213.1
2015-Apr-16 13:33N 42°49' E 010°20'6 5.9
2015-Apr-16 12:33N 42°53' E 010°25'6 1.8
2015-Apr-16 09:26N 42°54' E 010°32'1112.4
2015-Apr-16 08:32N 42°49' E 010°19'0 0.0
2015-Apr-16 07:32N 42°49' E 010°19'8 8.3
2015-Apr-16 06:33N 42°54' E 010°28'4 4.1
2015-Apr-16 05:29N 42°56' E 010°33'1213.2
2015-Apr-16 04:33N 42°49' E 010°20'0 0.2
2015-Apr-16 03:33N 42°49' E 010°19'0 0.0
2015-Apr-16 02:33N 42°49' E 010°19'0 0.0
2015-Apr-16 01:33N 42°49' E 010°19'0 0.0
2015-Apr-16 00:33N 42°49' E 010°19'0 0.0
2015-Apr-15 23:33N 42°49' E 010°19'0 0.0
2015-Apr-15 22:33N 42°49' E 010°19'0 0.0
2015-Apr-15 21:33N 42°49' E 010°19'0 0.0
2015-Apr-15 20:32N 42°49' E 010°19'0 0.0
2015-Apr-15 19:27N 42°49' E 010°19'1314.3
2015-Apr-15 18:33N 42°56' E 010°34'6 6.4
2015-Apr-15 17:33N 42°53' E 010°26'6 6.1
2015-Apr-15 16:30N 42°49' E 010°19'6 6.1
2015-Apr-15 15:33N 42°53' E 010°25'7 6.5
2015-Apr-15 14:31N 42°56' E 010°33'1212.6
2015-Apr-15 13:33N 42°49' E 010°19'6 5.6
2015-Apr-15 12:34N 42°53' E 010°25'7 2.2
2015-Apr-15 09:32N 42°56' E 010°33'1212.3
2015-Apr-15 08:33N 42°49' E 010°20'0 0.1
2015-Apr-15 07:30N 42°49' E 010°19'9 8.7
2015-Apr-15 06:31N 42°54' E 010°29'4 3.7
2015-Apr-15 05:28N 42°56' E 010°33'13 1.3
2015-Apr-14 19:28N 42°49' E 010°19'1213.4
2015-Apr-14 18:32N 42°56' E 010°33'6 6.4
2015-Apr-14 17:33N 42°53' E 010°26'6 6.1
2015-Apr-14 16:31N 42°49' E 010°19'11 8.3
2015-Apr-14 15:14N 42°54' E 010°32'0 0.4
2015-Apr-14 14:19N 42°54' E 010°32'1 0.6
2015-Apr-14 12:08N 42°55' E 010°33'1 0.4
2015-Apr-14 09:17N 42°54' E 010°32'11 5.1
2015-Apr-14 07:09N 42°49' E 010°19'6 0.5
2015-Apr-13 17:33N 42°53' E 010°26'6 6.4
2015-Apr-13 16:33N 42°49' E 010°19'5 5.3
2015-Apr-13 15:33N 42°52' E 010°24'7 6.9
2015-Apr-13 14:32N 42°56' E 010°33'1212.6
2015-Apr-13 13:33N 42°49' E 010°19'6 5.5
2015-Apr-13 12:33N 42°53' E 010°25'7 2.3
2015-Apr-13 09:32N 42°56' E 010°33'1212.2
2015-Apr-13 08:33N 42°49' E 010°20'0 0.2
2015-Apr-13 07:33N 42°49' E 010°19'11 0.3
2015-Apr-11 15:11N 42°55' E 010°32'2 2.4
2015-Apr-11 14:29N 42°56' E 010°33'12 0.7
2015-Apr-10 19:28N 42°49' E 010°19'12 8.8
2015-Apr-10 18:04N 42°56' E 010°33'611.8
2015-Apr-10 17:34N 42°53' E 010°26'6 6.5
2015-Apr-10 16:33N 42°49' E 010°19'6 5.6
2015-Apr-10 15:33N 42°53' E 010°25'7 6.6
2015-Apr-10 14:32N 42°56' E 010°33'1212.5
2015-Apr-10 13:33N 42°49' E 010°19'6 6.5
2015-Apr-10 12:33N 42°53' E 010°25'5 1.7
2015-Apr-10 09:21N 42°54' E 010°33'1114.0
2015-Apr-10 08:33N 42°49' E 010°19'0 0.1
2015-Apr-10 07:33N 42°49' E 010°19'8 7.9
2015-Apr-10 06:33N 42°54' E 010°28'4 3.0
2015-Apr-10 05:19N 42°54' E 010°33'11 2.2
2015-Apr-10 00:10N 42°49' E 010°19'0 0.0
2015-Apr-09 23:31N 42°49' E 010°19'0 0.0
2015-Apr-09 22:33N 42°49' E 010°19'0 0.0
2015-Apr-09 21:32N 42°49' E 010°19'0 0.0
2015-Apr-09 20:33N 42°49' E 010°19'0 0.3
2015-Apr-09 19:26N 42°49' E 010°20'1314.4
2015-Apr-09 18:33N 42°56' E 010°34'13 6.4
2015-Apr-09 16:33N 42°49' E 010°19'8 8.2
2015-Apr-09 15:34N 42°54' E 010°28'4 3.9
2015-Apr-09 14:31N 42°56' E 010°33'1212.7
2015-Apr-09 13:33N 42°49' E 010°20'6 6.0
2015-Apr-09 12:34N 42°53' E 010°25'6 5.3
2015-Apr-09 11:22N 42°56' E 010°33'3 1.4
2015-Apr-09 09:13N 42°53' E 010°31'912.0
2015-Apr-09 08:26N 42°49' E 010°19'0 0.0
2015-Apr-09 07:20N 42°49' E 010°19'12 6.8
2015-Apr-09 05:30N 42°56' E 010°33'1212.9
2015-Apr-09 04:33N 42°49' E 010°20'0 0.1
2015-Apr-09 01:28N 42°49' E 010°19'0 0.0
2015-Apr-09 00:34N 42°49' E 010°19'0 0.0
2015-Apr-08 23:32N 42°49' E 010°19'0 0.0
2015-Apr-08 22:33N 42°49' E 010°19'1 0.3
2015-Apr-08 19:21N 42°49' E 010°21'  
Track history (hours):
 
Tides and Currents Weather Stations Pressure Air Temp Water Temp Dewpoint Dewpoint Depression Visibility Wind Speed Wind Dir Waves Ship Positions

Moby Baby

Last reported at 2015-Apr-18 19:14 UTC. Time now 2015-Apr-19 09:24 UTC.
Position N 42°50' E 010°22'.

Length 99 m; draft 4.5 m.

Type: Ship. MMSI: 247049900.

Date/timePositionNaut miles runAvg speedWind from/ knotsBaromVisibWave heightAir tempDewpointWater temp
2015-Apr-18 19:14N 42°50' E 010°22'3 1.8
2015-Apr-18 17:29N 42°53' E 010°25'2 1.0
2015-Apr-18 15:31N 42°54' E 010°27'1 0.3
2015-Apr-18 12:33N 42°54' E 010°26'2 0.1
2015-Apr-17 19:05N 42°52' E 010°24'7 1.9
2015-Apr-17 15:12N 42°55' E 010°33'12 0.9
2015-Apr-17 01:29N 42°49' E 010°19'0 0.0
2015-Apr-17 00:04N 42°49' E 010°19'0 0.0
2015-Apr-16 23:33N 42°49' E 010°19'0 0.0
2015-Apr-16 22:31N 42°49' E 010°19'0 0.0
2015-Apr-16 21:33N 42°49' E 010°19'0 0.0
2015-Apr-16 20:30N 42°49' E 010°19'0 0.0
2015-Apr-16 19:31N 42°49' E 010°19'2 0.7
2015-Apr-16 17:14N 42°50' E 010°21'5 2.8
2015-Apr-16 15:31N 42°53' E 010°26'6 5.9
2015-Apr-16 14:29N 42°56' E 010°33'1213.1
2015-Apr-16 13:33N 42°49' E 010°20'6 5.9
2015-Apr-16 12:33N 42°53' E 010°25'6 1.8
2015-Apr-16 09:26N 42°54' E 010°32'1112.4
2015-Apr-16 08:32N 42°49' E 010°19'0 0.0
2015-Apr-16 07:32N 42°49' E 010°19'8 8.3
2015-Apr-16 06:33N 42°54' E 010°28'4 4.1
2015-Apr-16 05:29N 42°56' E 010°33'1213.2
2015-Apr-16 04:33N 42°49' E 010°20'0 0.2
2015-Apr-16 03:33N 42°49' E 010°19'0 0.0
2015-Apr-16 02:33N 42°49' E 010°19'0 0.0
2015-Apr-16 01:33N 42°49' E 010°19'0 0.0
2015-Apr-16 00:33N 42°49' E 010°19'0 0.0
2015-Apr-15 23:33N 42°49' E 010°19'0 0.0
2015-Apr-15 22:33N 42°49' E 010°19'0 0.0
2015-Apr-15 21:33N 42°49' E 010°19'0 0.0
2015-Apr-15 20:32N 42°49' E 010°19'0 0.0
2015-Apr-15 19:27N 42°49' E 010°19'1314.3
2015-Apr-15 18:33N 42°56' E 010°34'6 6.4
2015-Apr-15 17:33N 42°53' E 010°26'6 6.1
2015-Apr-15 16:30N 42°49' E 010°19'6 6.1
2015-Apr-15 15:33N 42°53' E 010°25'7 6.5
2015-Apr-15 14:31N 42°56' E 010°33'1212.6
2015-Apr-15 13:33N 42°49' E 010°19'6 5.6
2015-Apr-15 12:34N 42°53' E 010°25'7 2.2
2015-Apr-15 09:32N 42°56' E 010°33'1212.3
2015-Apr-15 08:33N 42°49' E 010°20'0 0.1
2015-Apr-15 07:30N 42°49' E 010°19'9 8.7
2015-Apr-15 06:31N 42°54' E 010°29'4 3.7
2015-Apr-15 05:28N 42°56' E 010°33'13 1.3
2015-Apr-14 19:28N 42°49' E 010°19'1213.4
2015-Apr-14 18:32N 42°56' E 010°33'6 6.4
2015-Apr-14 17:33N 42°53' E 010°26'6 6.1
2015-Apr-14 16:31N 42°49' E 010°19'11 8.3
2015-Apr-14 15:14N 42°54' E 010°32'0 0.4
2015-Apr-14 14:19N 42°54' E 010°32'1 0.6
2015-Apr-14 12:08N 42°55' E 010°33'1 0.4
2015-Apr-14 09:17N 42°54' E 010°32'11 5.1
2015-Apr-14 07:09N 42°49' E 010°19'6 0.5
2015-Apr-13 17:33N 42°53' E 010°26'6 6.4
2015-Apr-13 16:33N 42°49' E 010°19'5 5.3
2015-Apr-13 15:33N 42°52' E 010°24'7 6.9
2015-Apr-13 14:32N 42°56' E 010°33'1212.6
2015-Apr-13 13:33N 42°49' E 010°19'6 5.5
2015-Apr-13 12:33N 42°53' E 010°25'7 2.3
2015-Apr-13 09:32N 42°56' E 010°33'1212.2
2015-Apr-13 08:33N 42°49' E 010°20'0 0.2
2015-Apr-13 07:33N 42°49' E 010°19'11 0.3
2015-Apr-11 15:11N 42°55' E 010°32'2 2.4
2015-Apr-11 14:29N 42°56' E 010°33'12 0.7
2015-Apr-10 19:28N 42°49' E 010°19'12 8.8
2015-Apr-10 18:04N 42°56' E 010°33'611.8
2015-Apr-10 17:34N 42°53' E 010°26'6 6.5
2015-Apr-10 16:33N 42°49' E 010°19'6 5.6
2015-Apr-10 15:33N 42°53' E 010°25'7 6.6
2015-Apr-10 14:32N 42°56' E 010°33'1212.5
2015-Apr-10 13:33N 42°49' E 010°19'6 6.5
2015-Apr-10 12:33N 42°53' E 010°25'5 1.7
2015-Apr-10 09:21N 42°54' E 010°33'1114.0
2015-Apr-10 08:33N 42°49' E 010°19'0 0.1
2015-Apr-10 07:33N 42°49' E 010°19'8 7.9
2015-Apr-10 06:33N 42°54' E 010°28'4 3.0
2015-Apr-10 05:19N 42°54' E 010°33'11 2.2
2015-Apr-10 00:10N 42°49' E 010°19'0 0.0
2015-Apr-09 23:31N 42°49' E 010°19'0 0.0
2015-Apr-09 22:33N 42°49' E 010°19'0 0.0
2015-Apr-09 21:32N 42°49' E 010°19'0 0.0
2015-Apr-09 20:33N 42°49' E 010°19'0 0.3
2015-Apr-09 19:26N 42°49' E 010°20'1314.4
2015-Apr-09 18:33N 42°56' E 010°34'13 6.4
2015-Apr-09 16:33N 42°49' E 010°19'8 8.2
2015-Apr-09 15:34N 42°54' E 010°28'4 3.9
2015-Apr-09 14:31N 42°56' E 010°33'1212.7
2015-Apr-09 13:33N 42°49' E 010°20'6 6.0
2015-Apr-09 12:34N 42°53' E 010°25'6 5.3
2015-Apr-09 11:22N 42°56' E 010°33'3 1.4
2015-Apr-09 09:13N 42°53' E 010°31'912.0
2015-Apr-09 08:26N 42°49' E 010°19'0 0.0
2015-Apr-09 07:20N 42°49' E 010°19'12 6.8
2015-Apr-09 05:30N 42°56' E 010°33'1212.9
2015-Apr-09 04:33N 42°49' E 010°20'0 0.1
2015-Apr-09 01:28N 42°49' E 010°19'0 0.0
2015-Apr-09 00:34N 42°49' E 010°19'0 0.0
2015-Apr-08 23:32N 42°49' E 010°19'0 0.0
2015-Apr-08 22:33N 42°49' E 010°19'1 0.3
2015-Apr-08 19:21N 42°49' E 010°21'  

Dump ship's entire track history